sensor_id;sensor_type;location;lat;lon;timestamp;P1;durP1;ratioP1;P2;durP2;ratioP2
44046;SDS011;29713;-33.888;151.150;2023-10-09T00:02:12;3.65;;;1.02;;
44046;SDS011;29713;-33.888;151.150;2023-10-09T00:04:40;2.72;;;0.85;;
44046;SDS011;29713;-33.888;151.150;2023-10-09T00:07:13;3.23;;;0.90;;
44046;SDS011;29713;-33.888;151.150;2023-10-09T00:09:42;2.67;;;0.90;;
44046;SDS011;29713;-33.888;151.150;2023-10-09T00:12:14;2.25;;;0.80;;
44046;SDS011;29713;-33.888;151.150;2023-10-09T00:14:48;2.88;;;0.90;;
44046;SDS011;29713;-33.888;151.150;2023-10-09T00:17:21;3.33;;;0.90;;
44046;SDS011;29713;-33.888;151.150;2023-10-09T00:19:49;3.72;;;0.90;;
44046;SDS011;29713;-33.888;151.150;2023-10-09T00:22:25;2.00;;;0.90;;
44046;SDS011;29713;-33.888;151.150;2023-10-09T00:24:54;2.43;;;0.87;;
44046;SDS011;29713;-33.888;151.150;2023-10-09T00:27:48;1.77;;;0.80;;
44046;SDS011;29713;-33.888;151.150;2023-10-09T00:30:16;3.42;;;1.00;;
44046;SDS011;29713;-33.888;151.150;2023-10-09T00:32:45;1.23;;;0.73;;
44046;SDS011;29713;-33.888;151.150;2023-10-09T00:35:38;2.28;;;0.90;;
44046;SDS011;29713;-33.888;151.150;2023-10-09T00:38:20;2.58;;;0.85;;
44046;SDS011;29713;-33.888;151.150;2023-10-09T00:40:47;2.00;;;0.80;;
44046;SDS011;29713;-33.888;151.150;2023-10-09T00:43:29;3.43;;;1.10;;
44046;SDS011;29713;-33.888;151.150;2023-10-09T00:45:57;2.85;;;1.10;;
44046;SDS011;29713;-33.888;151.150;2023-10-09T00:48:37;2.83;;;0.85;;
44046;SDS011;29713;-33.888;151.150;2023-10-09T00:51:06;4.75;;;1.00;;
44046;SDS011;29713;-33.888;151.150;2023-10-09T00:53:45;1.60;;;0.80;;
44046;SDS011;29713;-33.888;151.150;2023-10-09T00:56:21;2.33;;;0.90;;
44046;SDS011;29713;-33.888;151.150;2023-10-09T00:58:59;2.55;;;0.95;;
44046;SDS011;29713;-33.888;151.150;2023-10-09T01:01:35;2.95;;;1.00;;
44046;SDS011;29713;-33.888;151.150;2023-10-09T01:04:06;3.55;;;1.00;;
44046;SDS011;29713;-33.888;151.150;2023-10-09T01:06:42;3.08;;;0.80;;
44046;SDS011;29713;-33.888;151.150;2023-10-09T01:09:16;2.10;;;1.08;;
44046;SDS011;29713;-33.888;151.150;2023-10-09T01:11:45;2.63;;;1.05;;
44046;SDS011;29713;-33.888;151.150;2023-10-09T01:14:29;2.83;;;0.93;;
44046;SDS011;29713;-33.888;151.150;2023-10-09T01:17:02;3.20;;;1.00;;
44046;SDS011;29713;-33.888;151.150;2023-10-09T01:19:37;2.65;;;0.82;;
44046;SDS011;29713;-33.888;151.150;2023-10-09T01:22:04;4.25;;;0.98;;
44046;SDS011;29713;-33.888;151.150;2023-10-09T01:24:41;2.45;;;1.00;;
44046;SDS011;29713;-33.888;151.150;2023-10-09T01:27:09;2.80;;;0.93;;
44046;SDS011;29713;-33.888;151.150;2023-10-09T01:29:43;3.63;;;0.90;;
44046;SDS011;29713;-33.888;151.150;2023-10-09T01:32:11;2.65;;;0.80;;
44046;SDS011;29713;-33.888;151.150;2023-10-09T01:34:45;2.30;;;0.70;;
44046;SDS011;29713;-33.888;151.150;2023-10-09T01:37:19;1.40;;;0.60;;
44046;SDS011;29713;-33.888;151.150;2023-10-09T01:39:55;2.67;;;0.85;;
44046;SDS011;29713;-33.888;151.150;2023-10-09T01:43:02;5.00;;;1.20;;
44046;SDS011;29713;-33.888;151.150;2023-10-09T01:45:36;3.38;;;1.20;;
44046;SDS011;29713;-33.888;151.150;2023-10-09T01:48:12;1.50;;;0.80;;
44046;SDS011;29713;-33.888;151.150;2023-10-09T01:50:49;2.77;;;1.00;;
44046;SDS011;29713;-33.888;151.150;2023-10-09T01:53:16;3.80;;;1.10;;
44046;SDS011;29713;-33.888;151.150;2023-10-09T01:55:46;6.18;;;1.33;;
44046;SDS011;29713;-33.888;151.150;2023-10-09T01:58:15;3.23;;;0.90;;
44046;SDS011;29713;-33.888;151.150;2023-10-09T02:00:50;2.50;;;0.90;;
44046;SDS011;29713;-33.888;151.150;2023-10-09T02:03:21;3.33;;;1.20;;
44046;SDS011;29713;-33.888;151.150;2023-10-09T02:05:50;3.20;;;1.00;;
44046;SDS011;29713;-33.888;151.150;2023-10-09T02:08:19;4.22;;;1.30;;
44046;SDS011;29713;-33.888;151.150;2023-10-09T02:10:52;2.55;;;0.90;;
44046;SDS011;29713;-33.888;151.150;2023-10-09T02:13:22;2.97;;;1.00;;
44046;SDS011;29713;-33.888;151.150;2023-10-09T02:15:57;4.25;;;1.00;;
44046;SDS011;29713;-33.888;151.150;2023-10-09T02:18:38;3.95;;;0.90;;
44046;SDS011;29713;-33.888;151.150;2023-10-09T02:21:17;3.72;;;1.00;;
44046;SDS011;29713;-33.888;151.150;2023-10-09T02:24:05;2.55;;;1.00;;
44046;SDS011;29713;-33.888;151.150;2023-10-09T02:26:52;3.28;;;1.00;;
44046;SDS011;29713;-33.888;151.150;2023-10-09T02:29:19;2.43;;;0.80;;
44046;SDS011;29713;-33.888;151.150;2023-10-09T02:31:49;2.53;;;0.80;;
44046;SDS011;29713;-33.888;151.150;2023-10-09T02:34:26;3.53;;;0.95;;
44046;SDS011;29713;-33.888;151.150;2023-10-09T02:36:55;3.23;;;0.90;;
44046;SDS011;29713;-33.888;151.150;2023-10-09T02:39:31;3.22;;;0.90;;
44046;SDS011;29713;-33.888;151.150;2023-10-09T02:42:18;2.40;;;1.00;;
44046;SDS011;29713;-33.888;151.150;2023-10-09T02:44:49;3.50;;;1.10;;
44046;SDS011;29713;-33.888;151.150;2023-10-09T02:47:18;3.38;;;1.02;;
44046;SDS011;29713;-33.888;151.150;2023-10-09T02:49:50;3.45;;;1.00;;
44046;SDS011;29713;-33.888;151.150;2023-10-09T02:52:18;4.73;;;1.30;;
44046;SDS011;29713;-33.888;151.150;2023-10-09T02:54:51;6.67;;;1.40;;
44046;SDS011;29713;-33.888;151.150;2023-10-09T02:57:38;2.70;;;0.85;;
44046;SDS011;29713;-33.888;151.150;2023-10-09T03:00:07;4.78;;;1.00;;
44046;SDS011;29713;-33.888;151.150;2023-10-09T03:02:44;1.73;;;0.80;;
44046;SDS011;29713;-33.888;151.150;2023-10-09T03:05:15;4.55;;;1.08;;
44046;SDS011;29713;-33.888;151.150;2023-10-09T03:07:43;3.35;;;0.90;;
44046;SDS011;29713;-33.888;151.150;2023-10-09T03:10:11;4.85;;;1.20;;
44046;SDS011;29713;-33.888;151.150;2023-10-09T03:12:38;4.32;;;1.00;;
44046;SDS011;29713;-33.888;151.150;2023-10-09T03:15:08;2.60;;;0.82;;
44046;SDS011;29713;-33.888;151.150;2023-10-09T03:17:36;5.03;;;1.13;;
44046;SDS011;29713;-33.888;151.150;2023-10-09T03:20:04;10.63;;;2.25;;
44046;SDS011;29713;-33.888;151.150;2023-10-09T03:22:38;7.40;;;1.70;;
44046;SDS011;29713;-33.888;151.150;2023-10-09T03:25:10;4.47;;;1.13;;
44046;SDS011;29713;-33.888;151.150;2023-10-09T03:27:39;3.78;;;0.98;;
44046;SDS011;29713;-33.888;151.150;2023-10-09T03:30:13;3.50;;;1.00;;
44046;SDS011;29713;-33.888;151.150;2023-10-09T03:33:00;4.35;;;0.90;;
44046;SDS011;29713;-33.888;151.150;2023-10-09T03:35:29;4.60;;;1.27;;
44046;SDS011;29713;-33.888;151.150;2023-10-09T03:37:59;3.20;;;0.87;;
44046;SDS011;29713;-33.888;151.150;2023-10-09T03:40:35;5.35;;;1.10;;
44046;SDS011;29713;-33.888;151.150;2023-10-09T03:43:04;6.13;;;1.60;;
44046;SDS011;29713;-33.888;151.150;2023-10-09T03:45:32;3.40;;;1.17;;
44046;SDS011;29713;-33.888;151.150;2023-10-09T03:48:01;2.60;;;1.00;;
44046;SDS011;29713;-33.888;151.150;2023-10-09T03:50:35;4.97;;;1.20;;
44046;SDS011;29713;-33.888;151.150;2023-10-09T03:53:06;2.67;;;1.02;;
44046;SDS011;29713;-33.888;151.150;2023-10-09T03:55:36;2.72;;;0.75;;
44046;SDS011;29713;-33.888;151.150;2023-10-09T03:58:07;3.67;;;1.00;;
44046;SDS011;29713;-33.888;151.150;2023-10-09T04:00:39;4.72;;;1.08;;
44046;SDS011;29713;-33.888;151.150;2023-10-09T04:03:14;2.20;;;0.88;;
44046;SDS011;29713;-33.888;151.150;2023-10-09T04:05:42;1.75;;;0.80;;
44046;SDS011;29713;-33.888;151.150;2023-10-09T04:08:10;3.10;;;0.82;;
44046;SDS011;29713;-33.888;151.150;2023-10-09T04:10:55;4.30;;;1.08;;
44046;SDS011;29713;-33.888;151.150;2023-10-09T04:13:31;2.85;;;1.05;;
44046;SDS011;29713;-33.888;151.150;2023-10-09T04:16:00;4.07;;;0.93;;
44046;SDS011;29713;-33.888;151.150;2023-10-09T04:18:36;3.53;;;1.10;;
44046;SDS011;29713;-33.888;151.150;2023-10-09T04:21:05;3.05;;;0.95;;
44046;SDS011;29713;-33.888;151.150;2023-10-09T04:23:45;5.00;;;1.40;;
44046;SDS011;29713;-33.888;151.150;2023-10-09T04:26:30;2.65;;;1.05;;
44046;SDS011;29713;-33.888;151.150;2023-10-09T04:29:00;3.55;;;1.02;;
44046;SDS011;29713;-33.888;151.150;2023-10-09T04:31:28;3.38;;;0.80;;
44046;SDS011;29713;-33.888;151.150;2023-10-09T04:34:00;3.22;;;0.90;;
44046;SDS011;29713;-33.888;151.150;2023-10-09T04:36:46;3.30;;;0.90;;
44046;SDS011;29713;-33.888;151.150;2023-10-09T04:39:23;2.63;;;0.90;;
44046;SDS011;29713;-33.888;151.150;2023-10-09T04:41:56;4.05;;;1.05;;
44046;SDS011;29713;-33.888;151.150;2023-10-09T04:44:42;3.17;;;1.00;;
44046;SDS011;29713;-33.888;151.150;2023-10-09T04:47:29;4.00;;;1.00;;
44046;SDS011;29713;-33.888;151.150;2023-10-09T04:52:38;3.63;;;0.90;;
44046;SDS011;29713;-33.888;151.150;2023-10-09T04:55:06;4.75;;;1.10;;
44046;SDS011;29713;-33.888;151.150;2023-10-09T04:57:42;5.00;;;1.07;;
44046;SDS011;29713;-33.888;151.150;2023-10-09T05:00:11;3.88;;;1.08;;
44046;SDS011;29713;-33.888;151.150;2023-10-09T05:02:57;2.92;;;1.00;;
44046;SDS011;29713;-33.888;151.150;2023-10-09T05:05:38;2.55;;;1.05;;
44046;SDS011;29713;-33.888;151.150;2023-10-09T05:08:15;3.83;;;1.15;;
44046;SDS011;29713;-33.888;151.150;2023-10-09T05:10:57;4.00;;;1.10;;
44046;SDS011;29713;-33.888;151.150;2023-10-09T05:13:29;5.60;;;1.03;;
44046;SDS011;29713;-33.888;151.150;2023-10-09T05:16:16;5.57;;;1.17;;
44046;SDS011;29713;-33.888;151.150;2023-10-09T05:18:48;3.90;;;1.20;;
44046;SDS011;29713;-33.888;151.150;2023-10-09T05:21:22;5.22;;;1.20;;
44046;SDS011;29713;-33.888;151.150;2023-10-09T05:23:59;5.57;;;1.40;;
44046;SDS011;29713;-33.888;151.150;2023-10-09T05:26:40;4.43;;;1.23;;
44046;SDS011;29713;-33.888;151.150;2023-10-09T05:29:30;3.03;;;1.33;;
44046;SDS011;29713;-33.888;151.150;2023-10-09T05:32:13;4.35;;;1.08;;
44046;SDS011;29713;-33.888;151.150;2023-10-09T05:34:41;3.33;;;1.25;;
44046;SDS011;29713;-33.888;151.150;2023-10-09T05:37:30;3.35;;;1.27;;
44046;SDS011;29713;-33.888;151.150;2023-10-09T05:39:59;3.30;;;1.10;;
44046;SDS011;29713;-33.888;151.150;2023-10-09T05:42:28;4.10;;;1.23;;
44046;SDS011;29713;-33.888;151.150;2023-10-09T05:45:03;4.57;;;1.27;;
44046;SDS011;29713;-33.888;151.150;2023-10-09T05:47:43;3.03;;;1.15;;
44046;SDS011;29713;-33.888;151.150;2023-10-09T05:50:22;3.33;;;1.02;;
44046;SDS011;29713;-33.888;151.150;2023-10-09T05:52:51;2.88;;;1.05;;
44046;SDS011;29713;-33.888;151.150;2023-10-09T05:55:23;2.63;;;0.80;;
44046;SDS011;29713;-33.888;151.150;2023-10-09T05:57:54;3.63;;;1.08;;
44046;SDS011;29713;-33.888;151.150;2023-10-09T06:00:22;4.23;;;1.10;;
44046;SDS011;29713;-33.888;151.150;2023-10-09T06:03:08;3.28;;;0.93;;
44046;SDS011;29713;-33.888;151.150;2023-10-09T06:05:54;2.63;;;0.80;;
44046;SDS011;29713;-33.888;151.150;2023-10-09T06:08:23;3.03;;;1.00;;
44046;SDS011;29713;-33.888;151.150;2023-10-09T06:11:14;3.23;;;1.00;;
44046;SDS011;29713;-33.888;151.150;2023-10-09T06:14:05;3.35;;;1.10;;
44046;SDS011;29713;-33.888;151.150;2023-10-09T06:16:41;2.80;;;1.00;;
44046;SDS011;29713;-33.888;151.150;2023-10-09T06:19:12;2.38;;;0.80;;
44046;SDS011;29713;-33.888;151.150;2023-10-09T06:21:46;1.77;;;0.90;;
44046;SDS011;29713;-33.888;151.150;2023-10-09T06:24:32;2.90;;;0.90;;
44046;SDS011;29713;-33.888;151.150;2023-10-09T06:27:07;2.72;;;0.90;;
44046;SDS011;29713;-33.888;151.150;2023-10-09T06:29:38;4.25;;;1.02;;
44046;SDS011;29713;-33.888;151.150;2023-10-09T06:32:10;3.05;;;0.88;;
44046;SDS011;29713;-33.888;151.150;2023-10-09T06:34:47;3.70;;;1.10;;
44046;SDS011;29713;-33.888;151.150;2023-10-09T06:37:23;3.13;;;1.13;;
44046;SDS011;29713;-33.888;151.150;2023-10-09T06:39:55;2.70;;;0.70;;
44046;SDS011;29713;-33.888;151.150;2023-10-09T06:42:24;2.97;;;0.80;;
44046;SDS011;29713;-33.888;151.150;2023-10-09T06:45:10;3.25;;;0.82;;
44046;SDS011;29713;-33.888;151.150;2023-10-09T06:47:38;2.90;;;1.02;;
44046;SDS011;29713;-33.888;151.150;2023-10-09T06:50:21;4.72;;;1.10;;
44046;SDS011;29713;-33.888;151.150;2023-10-09T06:53:14;5.63;;;2.15;;
44046;SDS011;29713;-33.888;151.150;2023-10-09T06:55:45;9.95;;;2.63;;
44046;SDS011;29713;-33.888;151.150;2023-10-09T07:01:10;11.52;;;4.93;;
44046;SDS011;29713;-33.888;151.150;2023-10-09T07:04:06;3.88;;;1.25;;
44046;SDS011;29713;-33.888;151.150;2023-10-09T07:07:06;4.53;;;1.55;;
44046;SDS011;29713;-33.888;151.150;2023-10-09T07:09:38;7.27;;;2.23;;
44046;SDS011;29713;-33.888;151.150;2023-10-09T07:12:09;6.10;;;2.20;;
44046;SDS011;29713;-33.888;151.150;2023-10-09T07:14:46;4.83;;;1.33;;
44046;SDS011;29713;-33.888;151.150;2023-10-09T07:17:33;6.28;;;1.23;;
44046;SDS011;29713;-33.888;151.150;2023-10-09T07:20:01;3.47;;;1.30;;
44046;SDS011;29713;-33.888;151.150;2023-10-09T07:22:40;2.63;;;1.00;;
44046;SDS011;29713;-33.888;151.150;2023-10-09T07:25:28;5.03;;;1.40;;
44046;SDS011;29713;-33.888;151.150;2023-10-09T07:28:15;4.15;;;1.40;;
44046;SDS011;29713;-33.888;151.150;2023-10-09T07:31:05;3.20;;;1.40;;
44046;SDS011;29713;-33.888;151.150;2023-10-09T07:33:34;5.60;;;2.03;;
44046;SDS011;29713;-33.888;151.150;2023-10-09T07:36:37;3.08;;;1.45;;
44046;SDS011;29713;-33.888;151.150;2023-10-09T07:39:05;4.22;;;2.38;;
44046;SDS011;29713;-33.888;151.150;2023-10-09T07:41:40;3.85;;;1.40;;
44046;SDS011;29713;-33.888;151.150;2023-10-09T07:44:21;5.72;;;1.50;;
44046;SDS011;29713;-33.888;151.150;2023-10-09T07:47:02;3.30;;;1.40;;
44046;SDS011;29713;-33.888;151.150;2023-10-09T07:49:44;5.80;;;1.37;;
44046;SDS011;29713;-33.888;151.150;2023-10-09T07:52:19;3.38;;;1.10;;
44046;SDS011;29713;-33.888;151.150;2023-10-09T07:54:47;4.00;;;1.33;;
44046;SDS011;29713;-33.888;151.150;2023-10-09T07:57:21;4.13;;;1.23;;
44046;SDS011;29713;-33.888;151.150;2023-10-09T07:59:54;4.77;;;1.50;;
44046;SDS011;29713;-33.888;151.150;2023-10-09T08:02:42;2.47;;;1.08;;
44046;SDS011;29713;-33.888;151.150;2023-10-09T08:05:09;8.57;;;3.20;;
44046;SDS011;29713;-33.888;151.150;2023-10-09T08:07:47;5.03;;;2.27;;
44046;SDS011;29713;-33.888;151.150;2023-10-09T08:10:23;6.93;;;1.95;;
44046;SDS011;29713;-33.888;151.150;2023-10-09T08:12:53;3.45;;;1.40;;
44046;SDS011;29713;-33.888;151.150;2023-10-09T08:15:46;4.50;;;1.37;;
44046;SDS011;29713;-33.888;151.150;2023-10-09T08:18:19;3.35;;;1.30;;
44046;SDS011;29713;-33.888;151.150;2023-10-09T08:20:54;4.25;;;1.20;;
44046;SDS011;29713;-33.888;151.150;2023-10-09T08:23:24;4.88;;;1.17;;
44046;SDS011;29713;-33.888;151.150;2023-10-09T08:26:09;5.80;;;1.48;;
44046;SDS011;29713;-33.888;151.150;2023-10-09T08:28:40;5.43;;;1.43;;
44046;SDS011;29713;-33.888;151.150;2023-10-09T08:31:11;4.57;;;1.55;;
44046;SDS011;29713;-33.888;151.150;2023-10-09T08:33:58;5.22;;;1.40;;
44046;SDS011;29713;-33.888;151.150;2023-10-09T08:36:26;5.15;;;1.30;;
44046;SDS011;29713;-33.888;151.150;2023-10-09T08:39:02;3.90;;;1.60;;
44046;SDS011;29713;-33.888;151.150;2023-10-09T08:41:48;5.03;;;1.20;;
44046;SDS011;29713;-33.888;151.150;2023-10-09T08:44:19;3.95;;;1.50;;
44046;SDS011;29713;-33.888;151.150;2023-10-09T08:46:50;5.70;;;1.55;;
44046;SDS011;29713;-33.888;151.150;2023-10-09T08:49:20;3.85;;;1.27;;
44046;SDS011;29713;-33.888;151.150;2023-10-09T08:51:47;3.78;;;1.40;;
44046;SDS011;29713;-33.888;151.150;2023-10-09T08:54:15;5.10;;;1.75;;
44046;SDS011;29713;-33.888;151.150;2023-10-09T08:56:42;3.60;;;1.35;;
44046;SDS011;29713;-33.888;151.150;2023-10-09T08:59:20;3.83;;;1.30;;
44046;SDS011;29713;-33.888;151.150;2023-10-09T09:01:48;5.68;;;1.55;;
44046;SDS011;29713;-33.888;151.150;2023-10-09T09:07:04;5.90;;;1.83;;
44046;SDS011;29713;-33.888;151.150;2023-10-09T09:09:33;5.57;;;1.42;;
44046;SDS011;29713;-33.888;151.150;2023-10-09T09:12:00;6.03;;;1.58;;
44046;SDS011;29713;-33.888;151.150;2023-10-09T09:14:37;6.45;;;1.58;;
44046;SDS011;29713;-33.888;151.150;2023-10-09T09:17:08;5.88;;;1.40;;
44046;SDS011;29713;-33.888;151.150;2023-10-09T09:19:37;5.40;;;1.48;;
44046;SDS011;29713;-33.888;151.150;2023-10-09T09:22:04;5.22;;;1.60;;
44046;SDS011;29713;-33.888;151.150;2023-10-09T09:24:38;6.32;;;1.63;;
44046;SDS011;29713;-33.888;151.150;2023-10-09T09:27:43;4.60;;;1.60;;
44046;SDS011;29713;-33.888;151.150;2023-10-09T09:30:26;4.88;;;1.58;;
44046;SDS011;29713;-33.888;151.150;2023-10-09T09:36:10;5.50;;;1.60;;
44046;SDS011;29713;-33.888;151.150;2023-10-09T09:38:37;7.30;;;1.60;;
44046;SDS011;29713;-33.888;151.150;2023-10-09T09:41:16;4.32;;;1.30;;
44046;SDS011;29713;-33.888;151.150;2023-10-09T09:43:56;6.20;;;1.27;;
44046;SDS011;29713;-33.888;151.150;2023-10-09T09:46:32;5.40;;;1.50;;
44046;SDS011;29713;-33.888;151.150;2023-10-09T09:49:01;3.95;;;1.10;;
44046;SDS011;29713;-33.888;151.150;2023-10-09T09:51:31;4.53;;;1.30;;
44046;SDS011;29713;-33.888;151.150;2023-10-09T09:53:59;5.50;;;1.15;;
44046;SDS011;29713;-33.888;151.150;2023-10-09T09:56:28;3.00;;;1.00;;
44046;SDS011;29713;-33.888;151.150;2023-10-09T09:58:57;5.00;;;1.40;;
44046;SDS011;29713;-33.888;151.150;2023-10-09T10:01:30;5.80;;;1.58;;
44046;SDS011;29713;-33.888;151.150;2023-10-09T10:04:05;6.40;;;1.53;;
44046;SDS011;29713;-33.888;151.150;2023-10-09T10:06:40;5.32;;;1.00;;
44046;SDS011;29713;-33.888;151.150;2023-10-09T10:09:12;5.00;;;1.33;;
44046;SDS011;29713;-33.888;151.150;2023-10-09T10:12:04;5.43;;;1.40;;
44046;SDS011;29713;-33.888;151.150;2023-10-09T10:14:52;4.80;;;1.38;;
44046;SDS011;29713;-33.888;151.150;2023-10-09T10:17:27;5.00;;;1.43;;
44046;SDS011;29713;-33.888;151.150;2023-10-09T10:22:48;3.08;;;1.20;;
44046;SDS011;29713;-33.888;151.150;2023-10-09T10:31:01;2.90;;;1.30;;
44046;SDS011;29713;-33.888;151.150;2023-10-09T10:34:17;3.38;;;1.27;;
44046;SDS011;29713;-33.888;151.150;2023-10-09T10:36:24;3.13;;;1.43;;
44046;SDS011;29713;-33.888;151.150;2023-10-09T10:39:02;3.75;;;1.40;;
44046;SDS011;29713;-33.888;151.150;2023-10-09T10:41:36;4.95;;;1.65;;
44046;SDS011;29713;-33.888;151.150;2023-10-09T10:44:26;3.63;;;1.33;;
44046;SDS011;29713;-33.888;151.150;2023-10-09T10:47:00;4.05;;;1.33;;
44046;SDS011;29713;-33.888;151.150;2023-10-09T10:49:28;3.28;;;1.15;;
44046;SDS011;29713;-33.888;151.150;2023-10-09T10:52:06;3.30;;;1.08;;
44046;SDS011;29713;-33.888;151.150;2023-10-09T10:54:43;4.40;;;1.23;;
44046;SDS011;29713;-33.888;151.150;2023-10-09T10:57:14;3.47;;;1.20;;
44046;SDS011;29713;-33.888;151.150;2023-10-09T10:59:57;4.38;;;1.38;;
44046;SDS011;29713;-33.888;151.150;2023-10-09T11:02:39;3.53;;;1.15;;
44046;SDS011;29713;-33.888;151.150;2023-10-09T11:05:09;4.13;;;1.50;;
44046;SDS011;29713;-33.888;151.150;2023-10-09T11:07:40;3.47;;;1.52;;
44046;SDS011;29713;-33.888;151.150;2023-10-09T11:10:08;2.92;;;1.50;;
44046;SDS011;29713;-33.888;151.150;2023-10-09T11:12:45;4.43;;;1.80;;
44046;SDS011;29713;-33.888;151.150;2023-10-09T11:15:31;4.55;;;2.05;;
44046;SDS011;29713;-33.888;151.150;2023-10-09T11:18:10;3.85;;;1.60;;
44046;SDS011;29713;-33.888;151.150;2023-10-09T11:20:50;3.60;;;1.45;;
44046;SDS011;29713;-33.888;151.150;2023-10-09T11:23:41;2.80;;;1.35;;
44046;SDS011;29713;-33.888;151.150;2023-10-09T11:26:18;5.50;;;1.67;;
44046;SDS011;29713;-33.888;151.150;2023-10-09T11:29:09;4.75;;;1.67;;
44046;SDS011;29713;-33.888;151.150;2023-10-09T11:34:29;3.92;;;1.77;;
44046;SDS011;29713;-33.888;151.150;2023-10-09T11:37:01;5.22;;;1.50;;
44046;SDS011;29713;-33.888;151.150;2023-10-09T11:39:38;5.60;;;1.65;;
44046;SDS011;29713;-33.888;151.150;2023-10-09T11:42:21;5.53;;;1.65;;
44046;SDS011;29713;-33.888;151.150;2023-10-09T11:45:07;3.75;;;1.70;;
44046;SDS011;29713;-33.888;151.150;2023-10-09T11:47:49;4.32;;;1.80;;
44046;SDS011;29713;-33.888;151.150;2023-10-09T11:50:45;5.85;;;1.80;;
44046;SDS011;29713;-33.888;151.150;2023-10-09T11:53:17;5.38;;;2.10;;
44046;SDS011;29713;-33.888;151.150;2023-10-09T11:56:05;5.65;;;1.90;;
44046;SDS011;29713;-33.888;151.150;2023-10-09T11:58:38;4.82;;;1.92;;
44046;SDS011;29713;-33.888;151.150;2023-10-09T12:01:12;6.70;;;1.90;;
44046;SDS011;29713;-33.888;151.150;2023-10-09T12:03:45;3.55;;;1.73;;
44046;SDS011;29713;-33.888;151.150;2023-10-09T12:06:17;3.83;;;1.60;;
44046;SDS011;29713;-33.888;151.150;2023-10-09T12:08:47;5.65;;;1.80;;
44046;SDS011;29713;-33.888;151.150;2023-10-09T12:11:15;4.85;;;2.10;;
44046;SDS011;29713;-33.888;151.150;2023-10-09T12:13:54;4.80;;;2.03;;
44046;SDS011;29713;-33.888;151.150;2023-10-09T12:16:23;4.90;;;2.10;;
44046;SDS011;29713;-33.888;151.150;2023-10-09T12:18:54;3.50;;;1.90;;
44046;SDS011;29713;-33.888;151.150;2023-10-09T12:21:21;6.70;;;2.15;;
44046;SDS011;29713;-33.888;151.150;2023-10-09T12:23:56;5.27;;;2.00;;
44046;SDS011;29713;-33.888;151.150;2023-10-09T12:26:24;4.55;;;1.70;;
44046;SDS011;29713;-33.888;151.150;2023-10-09T12:28:51;4.63;;;1.90;;
44046;SDS011;29713;-33.888;151.150;2023-10-09T12:31:18;6.78;;;1.80;;
44046;SDS011;29713;-33.888;151.150;2023-10-09T12:33:46;6.53;;;2.08;;
44046;SDS011;29713;-33.888;151.150;2023-10-09T12:36:16;4.55;;;2.00;;
44046;SDS011;29713;-33.888;151.150;2023-10-09T12:38:49;5.32;;;1.90;;
44046;SDS011;29713;-33.888;151.150;2023-10-09T12:41:18;5.55;;;1.90;;
44046;SDS011;29713;-33.888;151.150;2023-10-09T12:43:53;6.55;;;2.22;;
44046;SDS011;29713;-33.888;151.150;2023-10-09T12:46:21;6.32;;;1.80;;
44046;SDS011;29713;-33.888;151.150;2023-10-09T12:48:54;5.05;;;1.90;;
44046;SDS011;29713;-33.888;151.150;2023-10-09T12:51:23;4.75;;;1.80;;
44046;SDS011;29713;-33.888;151.150;2023-10-09T12:53:55;8.52;;;2.60;;
44046;SDS011;29713;-33.888;151.150;2023-10-09T12:56:23;7.53;;;2.47;;
44046;SDS011;29713;-33.888;151.150;2023-10-09T12:59:03;4.82;;;2.05;;
44046;SDS011;29713;-33.888;151.150;2023-10-09T13:01:32;5.35;;;2.20;;
44046;SDS011;29713;-33.888;151.150;2023-10-09T13:04:13;7.55;;;2.35;;
44046;SDS011;29713;-33.888;151.150;2023-10-09T13:06:42;6.88;;;1.95;;
44046;SDS011;29713;-33.888;151.150;2023-10-09T13:09:16;5.75;;;1.83;;
44046;SDS011;29713;-33.888;151.150;2023-10-09T13:11:58;7.50;;;2.20;;
44046;SDS011;29713;-33.888;151.150;2023-10-09T13:14:31;8.20;;;2.33;;
44046;SDS011;29713;-33.888;151.150;2023-10-09T13:17:01;9.68;;;2.25;;
44046;SDS011;29713;-33.888;151.150;2023-10-09T13:19:35;6.15;;;1.83;;
44046;SDS011;29713;-33.888;151.150;2023-10-09T13:22:03;8.32;;;2.30;;
44046;SDS011;29713;-33.888;151.150;2023-10-09T13:24:38;5.65;;;1.80;;
44046;SDS011;29713;-33.888;151.150;2023-10-09T13:27:05;5.70;;;1.70;;
44046;SDS011;29713;-33.888;151.150;2023-10-09T13:29:36;5.10;;;1.60;;
44046;SDS011;29713;-33.888;151.150;2023-10-09T13:32:07;5.97;;;2.00;;
44046;SDS011;29713;-33.888;151.150;2023-10-09T13:34:46;6.68;;;2.05;;
44046;SDS011;29713;-33.888;151.150;2023-10-09T13:37:15;6.70;;;2.03;;
44046;SDS011;29713;-33.888;151.150;2023-10-09T13:39:47;6.60;;;2.03;;
44046;SDS011;29713;-33.888;151.150;2023-10-09T13:42:21;8.68;;;2.30;;
44046;SDS011;29713;-33.888;151.150;2023-10-09T13:44:52;6.45;;;1.90;;
44046;SDS011;29713;-33.888;151.150;2023-10-09T13:47:22;7.43;;;2.45;;
44046;SDS011;29713;-33.888;151.150;2023-10-09T13:49:57;8.05;;;2.13;;
44046;SDS011;29713;-33.888;151.150;2023-10-09T13:52:25;7.03;;;2.15;;
44046;SDS011;29713;-33.888;151.150;2023-10-09T13:54:52;7.75;;;2.20;;
44046;SDS011;29713;-33.888;151.150;2023-10-09T13:57:20;6.13;;;1.88;;
44046;SDS011;29713;-33.888;151.150;2023-10-09T13:59:56;9.40;;;2.42;;
44046;SDS011;29713;-33.888;151.150;2023-10-09T14:02:25;7.78;;;2.20;;
44046;SDS011;29713;-33.888;151.150;2023-10-09T14:04:54;11.23;;;2.77;;
44046;SDS011;29713;-33.888;151.150;2023-10-09T14:07:23;11.88;;;3.20;;
44046;SDS011;29713;-33.888;151.150;2023-10-09T14:09:51;10.35;;;3.40;;
44046;SDS011;29713;-33.888;151.150;2023-10-09T14:12:21;12.80;;;3.83;;
44046;SDS011;29713;-33.888;151.150;2023-10-09T14:14:50;16.10;;;4.30;;
44046;SDS011;29713;-33.888;151.150;2023-10-09T14:17:19;16.35;;;4.75;;
44046;SDS011;29713;-33.888;151.150;2023-10-09T14:19:54;15.37;;;4.67;;
44046;SDS011;29713;-33.888;151.150;2023-10-09T14:22:42;16.83;;;4.40;;
44046;SDS011;29713;-33.888;151.150;2023-10-09T14:25:11;17.15;;;5.40;;
44046;SDS011;29713;-33.888;151.150;2023-10-09T14:27:40;14.70;;;4.72;;
44046;SDS011;29713;-33.888;151.150;2023-10-09T14:30:08;19.25;;;4.90;;
44046;SDS011;29713;-33.888;151.150;2023-10-09T14:32:44;19.70;;;4.82;;
44046;SDS011;29713;-33.888;151.150;2023-10-09T14:35:17;14.45;;;4.10;;
44046;SDS011;29713;-33.888;151.150;2023-10-09T14:37:47;12.15;;;3.60;;
44046;SDS011;29713;-33.888;151.150;2023-10-09T14:40:14;10.48;;;3.63;;
44046;SDS011;29713;-33.888;151.150;2023-10-09T14:42:46;15.50;;;4.18;;
44046;SDS011;29713;-33.888;151.150;2023-10-09T14:45:17;14.23;;;4.10;;
44046;SDS011;29713;-33.888;151.150;2023-10-09T14:47:47;12.18;;;3.20;;
44046;SDS011;29713;-33.888;151.150;2023-10-09T14:50:14;13.43;;;3.80;;
44046;SDS011;29713;-33.888;151.150;2023-10-09T14:52:42;10.18;;;3.10;;
44046;SDS011;29713;-33.888;151.150;2023-10-09T14:55:09;10.00;;;3.13;;
44046;SDS011;29713;-33.888;151.150;2023-10-09T14:57:37;12.90;;;3.42;;
44046;SDS011;29713;-33.888;151.150;2023-10-09T15:00:05;9.27;;;2.97;;
44046;SDS011;29713;-33.888;151.150;2023-10-09T15:02:41;9.25;;;3.00;;
44046;SDS011;29713;-33.888;151.150;2023-10-09T15:05:08;10.55;;;2.88;;
44046;SDS011;29713;-33.888;151.150;2023-10-09T15:07:37;7.40;;;2.47;;
44046;SDS011;29713;-33.888;151.150;2023-10-09T15:10:06;8.00;;;2.58;;
44046;SDS011;29713;-33.888;151.150;2023-10-09T15:12:35;9.30;;;2.53;;
44046;SDS011;29713;-33.888;151.150;2023-10-09T15:15:08;8.02;;;2.10;;